createdAt,value
2023-04-18T00:02:18.375Z,13.20
2023-04-18T00:04:48.660Z,13.17
2023-04-18T00:07:17.665Z,12.63
2023-04-18T00:09:45.943Z,13.10
2023-04-18T00:12:39.130Z,13.47
2023-04-18T00:15:12.759Z,14.47
2023-04-18T00:17:41.006Z,14.03
2023-04-18T00:20:12.602Z,13.83
2023-04-18T00:22:42.650Z,14.23
2023-04-18T00:25:11.796Z,14.23
2023-04-18T00:27:40.209Z,14.13
2023-04-18T00:30:09.622Z,15.10
2023-04-18T00:32:37.724Z,13.60
2023-04-18T00:35:06.903Z,14.10
2023-04-18T00:37:37.408Z,13.67
2023-04-18T00:40:06.205Z,14.83
2023-04-18T00:42:34.550Z,14.60
2023-04-18T00:45:02.689Z,16.03
2023-04-18T00:47:30.713Z,14.27
2023-04-18T00:50:00.205Z,14.80
2023-04-18T00:52:29.165Z,15.30
2023-04-18T00:54:58.635Z,15.33
2023-04-18T00:57:26.774Z,15.50
2023-04-18T00:59:54.873Z,16.00
2023-04-18T01:02:23.621Z,14.83
2023-04-18T01:04:52.183Z,16.53
2023-04-18T01:07:20.242Z,15.03
2023-04-18T01:09:48.684Z,15.53
2023-04-18T01:12:18.029Z,15.63
2023-04-18T01:14:46.175Z,15.73
2023-04-18T01:17:14.161Z,16.77
2023-04-18T01:19:42.240Z,16.93
2023-04-18T01:22:11.416Z,15.37
2023-04-18T01:24:41.037Z,17.00
2023-04-18T01:27:12.641Z,16.97
2023-04-18T01:29:41.492Z,17.80
2023-04-18T01:32:09.491Z,18.60
2023-04-18T01:34:37.601Z,16.87
2023-04-18T01:37:05.568Z,17.83
2023-04-18T01:39:34.065Z,19.10
2023-04-18T01:42:04.979Z,21.90
2023-04-18T01:44:32.952Z,20.87
2023-04-18T01:47:00.933Z,20.10
2023-04-18T01:49:28.911Z,19.67
2023-04-18T01:51:57.472Z,20.40
2023-04-18T01:54:25.450Z,19.30
2023-04-18T01:56:53.410Z,21.27
2023-04-18T01:59:22.777Z,20.97
2023-04-18T02:01:50.824Z,22.10
2023-04-18T02:04:19.407Z,22.13
2023-04-18T02:06:47.364Z,22.90
2023-04-18T02:09:15.350Z,24.17
2023-04-18T02:11:43.413Z,23.80
2023-04-18T02:14:11.734Z,22.70
2023-04-18T02:16:41.837Z,24.20
2023-04-18T02:19:09.827Z,22.97
2023-04-18T02:21:37.791Z,24.07
2023-04-18T02:24:06.048Z,24.13
2023-04-18T02:26:33.999Z,25.77
2023-04-18T02:29:05.120Z,24.00
2023-04-18T02:31:33.226Z,23.87
2023-04-18T02:34:02.556Z,24.23
2023-04-18T02:36:31.002Z,24.73
2023-04-18T02:38:58.997Z,23.93
2023-04-18T02:41:27.175Z,24.50
2023-04-18T02:43:55.858Z,24.63
2023-04-18T02:46:23.880Z,25.43
2023-04-18T02:48:51.851Z,24.33
2023-04-18T02:51:21.195Z,24.83
2023-04-18T02:53:49.848Z,23.83
2023-04-18T02:56:18.090Z,25.50
2023-04-18T02:58:46.073Z,26.80
2023-04-18T03:01:14.100Z,27.33
2023-04-18T03:03:42.090Z,25.60
2023-04-18T03:06:10.232Z,26.03
2023-04-18T03:08:39.557Z,26.17
2023-04-18T03:11:07.632Z,25.37
2023-04-18T03:13:36.248Z,25.50
2023-04-18T03:16:04.431Z,27.60
2023-04-18T03:18:32.800Z,26.07
2023-04-18T03:21:00.795Z,25.67
2023-04-18T03:23:28.730Z,27.17
2023-04-18T03:25:58.224Z,27.43
2023-04-18T03:28:26.175Z,26.03
2023-04-18T03:30:54.980Z,28.03
2023-04-18T03:33:23.992Z,28.57
2023-04-18T03:35:52.292Z,26.37
2023-04-18T03:38:20.309Z,28.27
2023-04-18T03:40:48.925Z,26.83
2023-04-18T03:43:18.574Z,27.50
2023-04-18T03:45:47.295Z,28.10
2023-04-18T03:48:15.618Z,26.77
2023-04-18T03:50:43.584Z,27.47
2023-04-18T03:53:11.570Z,27.30
2023-04-18T03:55:40.292Z,29.00
2023-04-18T03:58:08.269Z,26.87
2023-04-18T04:00:37.687Z,27.80
2023-04-18T04:03:06.898Z,28.70
2023-04-18T04:05:35.178Z,28.73
2023-04-18T04:08:03.290Z,29.00
2023-04-18T04:10:31.300Z,26.47
2023-04-18T04:12:59.360Z,27.23
2023-04-18T04:15:27.347Z,27.80
2023-04-18T04:17:56.717Z,26.20
2023-04-18T04:20:26.001Z,25.73
2023-04-18T04:22:54.048Z,27.60
2023-04-18T04:25:23.832Z,28.57
2023-04-18T04:27:53.595Z,27.93
2023-04-18T04:30:22.232Z,29.40
2023-04-18T04:32:51.255Z,27.70
2023-04-18T04:35:20.739Z,27.50
2023-04-18T04:37:49.197Z,28.17
2023-04-18T04:40:17.535Z,27.23
2023-04-18T04:42:45.923Z,26.97
2023-04-18T04:45:14.637Z,28.43
2023-04-18T04:47:42.533Z,30.70
2023-04-18T04:50:14.759Z,28.90
2023-04-18T04:52:44.501Z,26.07
2023-04-18T04:55:12.501Z,26.53
2023-04-18T04:57:40.819Z,27.40
2023-04-18T05:00:10.046Z,25.93
2023-04-18T05:02:38.480Z,28.13
2023-04-18T05:05:07.079Z,24.50
2023-04-18T05:07:35.126Z,26.13
2023-04-18T05:10:05.623Z,27.40
2023-04-18T05:12:33.705Z,26.30
2023-04-18T05:15:01.774Z,24.90
2023-04-18T05:17:29.839Z,24.27
2023-04-18T05:19:57.981Z,21.87
2023-04-18T05:22:26.877Z,22.60
2023-04-18T05:24:54.862Z,22.23
2023-04-18T05:27:24.266Z,21.90
2023-04-18T05:29:52.738Z,21.67
2023-04-18T05:32:21.216Z,21.60
2023-04-18T05:34:49.998Z,22.33
2023-04-18T05:37:18.187Z,20.00
2023-04-18T05:39:46.245Z,19.83
2023-04-18T05:42:14.873Z,19.63
2023-04-18T05:44:44.242Z,20.20
2023-04-18T05:47:13.430Z,22.83
2023-04-18T05:49:41.379Z,18.90
2023-04-18T05:52:09.335Z,20.87
2023-04-18T05:54:37.336Z,21.30
2023-04-18T05:57:05.324Z,21.33
2023-04-18T05:59:33.607Z,23.03
2023-04-18T06:02:03.021Z,21.77
2023-04-18T06:04:31.300Z,20.70
2023-04-18T06:06:59.462Z,22.23
2023-04-18T06:09:27.514Z,20.43
2023-04-18T06:11:55.700Z,19.93
2023-04-18T06:14:23.655Z,19.70
2023-04-18T06:16:51.743Z,19.30
2023-04-18T06:19:21.130Z,19.70
2023-04-18T06:21:50.018Z,21.00
2023-04-18T06:24:18.194Z,18.43
2023-04-18T06:26:47.278Z,18.63
2023-04-18T06:29:18.027Z,18.80
2023-04-18T06:31:48.396Z,19.60
2023-04-18T06:34:16.554Z,19.77
2023-04-18T06:36:46.084Z,19.73
2023-04-18T06:39:14.077Z,19.50
2023-04-18T06:41:42.077Z,21.30
2023-04-18T06:44:10.416Z,19.73
2023-04-18T06:46:38.395Z,19.90
2023-04-18T06:49:06.765Z,20.23
2023-04-18T06:51:34.805Z,19.70
2023-04-18T06:54:06.184Z,19.33
2023-04-18T06:56:36.386Z,18.30
2023-04-18T06:59:04.698Z,20.67
2023-04-18T07:01:34.468Z,19.47
2023-04-18T07:04:02.771Z,17.80
2023-04-18T07:06:31.155Z,17.87
2023-04-18T07:09:00.899Z,17.43
2023-04-18T07:11:30.294Z,18.00
2023-04-18T07:13:58.671Z,17.53
2023-04-18T07:16:26.725Z,16.50
2023-04-18T07:18:54.743Z,16.83
2023-04-18T07:21:24.019Z,19.47
2023-04-18T07:23:52.091Z,15.90
2023-04-18T07:26:20.916Z,17.23
2023-04-18T07:28:50.769Z,15.80
2023-04-18T07:31:19.519Z,16.30
2023-04-18T07:33:47.597Z,15.83
2023-04-18T07:36:15.662Z,18.40
2023-04-18T07:38:44.747Z,16.60
2023-04-18T07:41:12.768Z,18.00
2023-04-18T07:43:40.777Z,18.07
2023-04-18T07:46:10.451Z,15.83
2023-04-18T07:48:38.552Z,15.33
2023-04-18T07:51:06.891Z,15.10
2023-04-18T07:53:35.038Z,16.50
2023-04-18T07:56:03.111Z,16.33
2023-04-18T07:58:31.094Z,16.43
2023-04-18T08:00:59.088Z,16.23
2023-04-18T08:03:29.934Z,16.23
2023-04-18T08:05:58.151Z,18.30
2023-04-18T08:08:26.141Z,15.40
2023-04-18T08:10:54.146Z,16.70
2023-04-18T08:13:22.663Z,17.63
2023-04-18T08:15:51.191Z,16.37
2023-04-18T08:18:19.902Z,15.27
2023-04-18T08:20:49.402Z,15.30
2023-04-18T08:23:17.505Z,16.63
2023-04-18T08:25:45.777Z,15.60
2023-04-18T08:28:14.772Z,14.97
2023-04-18T08:30:43.980Z,16.27
2023-04-18T08:33:11.989Z,15.33
2023-04-18T08:35:40.012Z,16.57
2023-04-18T08:38:13.172Z,16.23
2023-04-18T08:40:41.416Z,17.60
2023-04-18T08:43:12.308Z,15.30
2023-04-18T08:45:40.751Z,17.57
2023-04-18T08:48:13.112Z,16.10
2023-04-18T08:50:41.359Z,15.20
2023-04-18T08:53:11.445Z,16.30
2023-04-18T08:55:40.498Z,15.10
2023-04-18T08:58:08.558Z,17.10
2023-04-18T09:00:36.613Z,15.70
2023-04-18T09:03:05.475Z,13.47
2023-04-18T09:05:33.690Z,14.23
2023-04-18T09:08:26.141Z,15.37
2023-04-18T09:10:54.121Z,14.20
2023-04-18T09:13:40.577Z,16.03
2023-04-18T09:16:08.598Z,14.13
2023-04-18T09:18:36.632Z,15.73
2023-04-18T09:21:19.651Z,14.17
2023-04-18T09:23:50.791Z,15.03
2023-04-18T09:26:33.876Z,15.00
2023-04-18T09:29:03.249Z,16.70
2023-04-18T09:31:31.400Z,12.90
2023-04-18T09:34:00.886Z,13.03
2023-04-18T09:36:29.025Z,13.10
2023-04-18T09:38:58.506Z,11.17
2023-04-18T09:41:27.047Z,12.67
2023-04-18T09:44:15.009Z,11.00
2023-04-18T09:46:46.032Z,11.53
2023-04-18T09:49:15.415Z,11.67
2023-04-18T09:51:44.788Z,11.37
2023-04-18T09:54:16.654Z,12.27
2023-04-18T09:56:45.575Z,10.97
2023-04-18T09:59:14.109Z,12.27
2023-04-18T10:01:44.957Z,11.07
2023-04-18T10:04:14.036Z,12.03
2023-04-18T10:06:43.671Z,10.33
2023-04-18T10:09:13.511Z,13.73
2023-04-18T10:11:41.766Z,11.10
2023-04-18T10:14:13.136Z,11.53
2023-04-18T10:16:43.088Z,13.13
2023-04-18T10:19:25.113Z,12.83
2023-04-18T10:21:57.191Z,11.13
2023-04-18T10:24:49.611Z,13.43
2023-04-18T10:27:18.648Z,11.30
2023-04-18T10:29:51.400Z,11.47
2023-04-18T10:32:20.516Z,12.40
2023-04-18T10:34:49.716Z,12.83
2023-04-18T10:37:18.985Z,10.93
2023-04-18T10:39:58.991Z,11.97
2023-04-18T10:42:59.962Z,10.93
2023-04-18T10:45:32.041Z,11.10
2023-04-18T10:48:25.740Z,11.70
2023-04-18T10:51:17.399Z,10.20
2023-04-18T10:53:51.076Z,11.07
2023-04-18T10:56:20.805Z,11.63
2023-04-18T10:58:52.213Z,10.80
2023-04-18T11:01:31.772Z,11.20
2023-04-18T11:04:01.582Z,10.03
2023-04-18T11:06:31.251Z,11.13
2023-04-18T11:09:11.655Z,11.57
2023-04-18T11:11:41.932Z,9.27
2023-04-18T11:14:10.096Z,10.43
2023-04-18T11:16:38.319Z,10.70
2023-04-18T11:19:23.339Z,11.17
2023-04-18T11:21:52.726Z,9.60
2023-04-18T11:24:24.712Z,9.23
2023-04-18T11:26:56.373Z,8.03
2023-04-18T11:29:24.531Z,8.57
2023-04-18T11:31:57.757Z,8.73
2023-04-18T11:34:31.432Z,9.37
2023-04-18T11:36:59.544Z,8.10
2023-04-18T11:39:27.668Z,7.67
2023-04-18T11:41:58.701Z,7.43
2023-04-18T11:44:27.459Z,7.47
2023-04-18T11:46:55.472Z,7.60
2023-04-18T11:49:30.456Z,7.43
2023-04-18T11:51:58.981Z,8.03
2023-04-18T11:54:41.118Z,8.63
2023-04-18T11:57:23.376Z,8.30
2023-04-18T11:59:53.056Z,8.90
2023-04-18T12:02:22.501Z,7.60
2023-04-18T12:04:53.081Z,7.70
2023-04-18T12:07:38.375Z,8.00
2023-04-18T12:10:09.288Z,9.53
2023-04-18T12:12:39.217Z,8.23
2023-04-18T12:15:10.465Z,9.83
2023-04-18T12:17:39.203Z,9.57
2023-04-18T12:20:09.969Z,9.10
2023-04-18T12:22:39.983Z,9.43
2023-04-18T12:25:19.861Z,9.90
2023-04-18T12:27:55.751Z,10.50
2023-04-18T12:30:25.495Z,8.67
2023-04-18T12:32:56.028Z,9.67
2023-04-18T12:35:24.798Z,7.77
2023-04-18T12:37:55.078Z,7.83
2023-04-18T12:40:24.215Z,7.80
2023-04-18T12:42:54.758Z,8.07
2023-04-18T12:45:24.295Z,8.00
2023-04-18T12:47:53.507Z,8.97
2023-04-18T12:50:23.775Z,8.37
2023-04-18T12:52:53.490Z,7.80
2023-04-18T12:55:21.801Z,8.03
2023-04-18T12:57:55.228Z,7.30
2023-04-18T13:00:24.420Z,7.93
2023-04-18T13:02:53.406Z,6.63
2023-04-18T13:05:23.605Z,8.17
2023-04-18T13:07:58.562Z,8.60
2023-04-18T13:10:30.553Z,8.47
2023-04-18T13:13:00.036Z,8.20
2023-04-18T13:15:28.132Z,8.37
2023-04-18T13:17:57.401Z,9.47
2023-04-18T13:20:25.535Z,7.37
2023-04-18T13:22:53.729Z,9.47
2023-04-18T13:25:21.930Z,9.70
2023-04-18T13:27:51.271Z,9.07
2023-04-18T13:30:21.177Z,8.93
2023-04-18T13:32:49.239Z,10.23
2023-04-18T13:35:17.518Z,11.33
2023-04-18T13:37:46.111Z,8.57
2023-04-18T13:40:14.604Z,7.70
2023-04-18T13:42:42.640Z,6.93
2023-04-18T13:45:11.374Z,8.47
2023-04-18T13:47:41.149Z,8.13
2023-04-18T13:50:10.960Z,7.40
2023-04-18T13:52:39.006Z,8.23
2023-04-18T13:55:08.236Z,7.60
2023-04-18T13:57:37.326Z,7.63
2023-04-18T14:00:07.488Z,8.60
2023-04-18T14:02:35.790Z,7.53
2023-04-18T14:05:06.336Z,9.47
2023-04-18T14:07:34.480Z,8.20
2023-04-18T14:10:02.508Z,10.30
2023-04-18T14:12:31.470Z,8.37
2023-04-18T14:14:59.481Z,8.83
2023-04-18T14:17:27.749Z,7.63
2023-04-18T14:19:55.996Z,11.23
2023-04-18T14:22:25.668Z,7.83
2023-04-18T14:24:54.920Z,8.40
2023-04-18T14:27:25.485Z,10.57
2023-04-18T14:29:53.520Z,11.87
2023-04-18T14:32:21.707Z,9.03
2023-04-18T14:34:49.784Z,9.47
2023-04-18T14:37:18.478Z,8.03
2023-04-18T14:39:48.524Z,12.70
2023-04-18T14:42:17.135Z,11.90
2023-04-18T14:44:45.283Z,8.03
2023-04-18T14:47:14.084Z,8.40
2023-04-18T14:49:42.467Z,7.93
2023-04-18T14:52:10.480Z,9.57
2023-04-18T14:54:38.892Z,8.37
2023-04-18T14:57:10.175Z,8.40
2023-04-18T14:59:38.287Z,8.03
2023-04-18T15:02:06.846Z,10.03
2023-04-18T15:04:36.922Z,10.63
2023-04-18T15:07:05.336Z,9.37
2023-04-18T15:09:37.451Z,10.03
2023-04-18T15:12:06.788Z,9.13
2023-04-18T15:14:36.693Z,11.33
2023-04-18T15:17:06.237Z,14.70
2023-04-18T15:19:34.490Z,10.77
2023-04-18T15:22:03.015Z,10.27
2023-04-18T15:24:31.629Z,8.70
2023-04-18T15:27:00.012Z,8.93
2023-04-18T15:29:28.061Z,8.77
2023-04-18T15:31:57.862Z,9.97
2023-04-18T15:34:26.396Z,7.50
2023-04-18T15:36:54.833Z,9.53
2023-04-18T15:39:24.038Z,6.93
2023-04-18T15:41:54.532Z,8.00
2023-04-18T15:44:22.616Z,7.40
2023-04-18T15:46:50.781Z,7.60
2023-04-18T15:49:21.414Z,9.53
2023-04-18T15:51:49.361Z,8.87
2023-04-18T15:54:17.392Z,10.37
2023-04-18T15:56:45.675Z,8.33
2023-04-18T15:59:13.736Z,8.37
2023-04-18T16:01:45.698Z,9.57
2023-04-18T16:04:14.517Z,10.20
2023-04-18T16:06:44.364Z,9.27
2023-04-18T16:09:12.480Z,9.27
2023-04-18T16:11:40.616Z,9.10
2023-04-18T16:14:08.784Z,9.57
2023-04-18T16:16:36.962Z,9.43
2023-04-18T16:19:05.621Z,10.03
2023-04-18T16:21:33.778Z,10.30
2023-04-18T16:24:03.245Z,9.90
2023-04-18T16:26:34.795Z,10.17
2023-04-18T16:29:02.859Z,10.30
2023-04-18T16:31:31.288Z,10.37
2023-04-18T16:33:59.671Z,12.83
2023-04-18T16:36:27.781Z,11.27
2023-04-18T16:38:56.968Z,13.00
2023-04-18T16:41:26.397Z,13.37
2023-04-18T16:43:54.741Z,12.47
2023-04-18T16:46:22.856Z,11.40
2023-04-18T16:48:52.402Z,11.17
2023-04-18T16:51:21.161Z,10.67
2023-04-18T16:53:49.278Z,9.97
2023-04-18T16:56:17.349Z,9.80
2023-04-18T16:58:46.767Z,9.47
2023-04-18T17:01:14.869Z,13.93
2023-04-18T17:03:43.092Z,10.30
2023-04-18T17:06:11.364Z,11.60
2023-04-18T17:08:39.470Z,11.10
2023-04-18T17:11:07.819Z,9.77
2023-04-18T17:13:36.246Z,9.13
2023-04-18T17:16:06.887Z,8.63
2023-04-18T17:18:34.940Z,9.70
2023-04-18T17:21:03.297Z,10.43
2023-04-18T17:23:32.955Z,9.60
2023-04-18T17:26:01.270Z,10.23
2023-04-18T17:28:29.524Z,14.87
2023-04-18T17:30:58.529Z,12.43
2023-04-18T17:33:28.043Z,12.37
2023-04-18T17:35:56.071Z,11.43
2023-04-18T17:38:24.201Z,10.47
2023-04-18T17:41:00.299Z,8.63
2023-04-18T17:43:29.595Z,10.77
2023-04-18T17:46:03.798Z,10.40
2023-04-18T17:48:33.863Z,10.37
2023-04-18T17:51:02.832Z,9.00
2023-04-18T17:53:32.419Z,11.20
2023-04-18T17:56:00.650Z,10.20
2023-04-18T17:58:29.541Z,10.20
2023-04-18T18:00:57.718Z,10.93
2023-04-18T18:03:26.631Z,11.07
2023-04-18T18:05:56.418Z,11.07
2023-04-18T18:08:25.754Z,9.73
2023-04-18T18:10:53.925Z,10.30
2023-04-18T18:13:21.915Z,11.23
2023-04-18T18:15:50.395Z,11.03
2023-04-18T18:18:18.424Z,11.20
2023-04-18T18:20:46.651Z,11.90
2023-04-18T18:23:16.120Z,12.37
2023-04-18T18:25:44.185Z,11.67
2023-04-18T18:28:12.586Z,12.53
2023-04-18T18:30:40.715Z,10.77
2023-04-18T18:33:08.836Z,11.63
2023-04-18T18:35:37.129Z,10.97
2023-04-18T18:38:05.204Z,11.03
2023-04-18T18:40:34.967Z,11.33
2023-04-18T18:43:02.962Z,10.80
2023-04-18T18:45:31.004Z,11.13
2023-04-18T18:47:59.121Z,11.63
2023-04-18T18:50:27.308Z,12.30
2023-04-18T18:52:55.828Z,12.17
2023-04-18T18:55:24.048Z,11.70
2023-04-18T18:57:53.733Z,27.20
2023-04-18T19:00:21.946Z,21.70
2023-04-18T19:02:50.156Z,12.23
2023-04-18T19:05:19.802Z,11.33
2023-04-18T19:07:48.310Z,11.63
2023-04-18T19:10:16.467Z,11.90
2023-04-18T19:12:44.684Z,11.60
2023-04-18T19:15:14.735Z,12.57
2023-04-18T19:17:43.540Z,11.07
2023-04-18T19:20:12.203Z,10.43
2023-04-18T19:22:40.479Z,10.83
2023-04-18T19:25:09.958Z,10.60
2023-04-18T19:27:38.067Z,9.77
2023-04-18T19:30:07.700Z,9.90
2023-04-18T19:32:37.271Z,9.63
2023-04-18T19:35:06.900Z,10.27
2023-04-18T19:37:34.968Z,10.03
2023-04-18T19:40:03.662Z,10.60
2023-04-18T19:42:32.293Z,9.90
2023-04-18T19:45:00.661Z,11.07
2023-04-18T19:47:32.201Z,10.00
2023-04-18T19:50:02.428Z,10.27
2023-04-18T19:52:30.527Z,9.97
2023-04-18T19:54:59.050Z,10.20
2023-04-18T19:57:28.877Z,9.60
2023-04-18T19:59:57.002Z,9.73
2023-04-18T20:02:25.288Z,9.53
2023-04-18T20:04:53.558Z,9.33
2023-04-18T20:07:25.511Z,9.03
2023-04-18T20:09:54.554Z,11.50
2023-04-18T20:12:23.333Z,9.70
2023-04-18T20:14:51.473Z,9.57
2023-04-18T20:17:19.988Z,9.43
2023-04-18T20:19:50.018Z,9.03
2023-04-18T20:22:18.234Z,9.10
2023-04-18T20:24:48.736Z,8.60
2023-04-18T20:27:20.352Z,8.60
2023-04-18T20:29:48.528Z,7.73
2023-04-18T20:32:17.005Z,12.90
2023-04-18T20:34:46.781Z,8.77
2023-04-18T20:37:18.689Z,9.43
2023-04-18T20:39:48.296Z,12.87
2023-04-18T20:42:16.368Z,10.90
2023-04-18T20:44:48.090Z,8.23
2023-04-18T20:47:16.144Z,8.90
2023-04-18T20:49:44.239Z,10.17
2023-04-18T20:52:14.360Z,9.53
2023-04-18T20:54:42.592Z,8.50
2023-04-18T20:57:12.346Z,9.00
2023-04-18T20:59:40.608Z,8.47
2023-04-18T21:02:09.478Z,9.27
2023-04-18T21:04:37.929Z,10.20
2023-04-18T21:07:06.859Z,8.73
2023-04-18T21:09:36.944Z,8.73
2023-04-18T21:12:05.302Z,7.90
2023-04-18T21:14:34.733Z,9.10
2023-04-18T21:17:04.422Z,9.93
2023-04-18T21:19:32.695Z,9.63
2023-04-18T21:22:01.225Z,8.50
2023-04-18T21:24:29.513Z,10.53
2023-04-18T21:26:57.889Z,9.47
2023-04-18T21:29:25.884Z,9.03
2023-04-18T21:31:55.313Z,10.17
2023-04-18T21:34:23.814Z,28.43
2023-04-18T21:36:52.662Z,29.37
2023-04-18T21:39:20.746Z,28.47
2023-04-18T21:41:48.735Z,22.70
2023-04-18T21:44:18.731Z,22.90
2023-04-18T21:46:47.171Z,19.70
2023-04-18T21:49:16.629Z,17.10
2023-04-18T21:51:44.845Z,13.63
2023-04-18T21:54:13.130Z,13.10
2023-04-18T21:56:41.247Z,14.10
2023-04-18T21:59:09.833Z,12.67
2023-04-18T22:01:38.366Z,10.53
2023-04-18T22:04:06.887Z,11.07
2023-04-18T22:06:36.350Z,11.30
2023-04-18T22:09:06.008Z,11.47
2023-04-18T22:11:34.870Z,11.70
2023-04-18T22:14:02.832Z,11.47
2023-04-18T22:16:30.979Z,12.47
2023-04-18T22:19:01.130Z,12.43
2023-04-18T22:21:29.076Z,12.67
2023-04-18T22:23:58.957Z,10.77
2023-04-18T22:26:26.976Z,11.30
2023-04-18T22:28:54.980Z,11.43
2023-04-18T22:31:23.060Z,10.83
2023-04-18T22:33:51.110Z,11.10
2023-04-18T22:36:19.544Z,11.97
2023-04-18T22:38:49.050Z,11.67
2023-04-18T22:41:18.418Z,11.27
2023-04-18T22:43:46.384Z,11.63
2023-04-18T22:46:14.421Z,11.77
2023-04-18T22:48:42.928Z,11.63
2023-04-18T22:51:10.994Z,11.37
2023-04-18T22:53:39.000Z,11.33
2023-04-18T22:56:07.614Z,10.93
2023-04-18T22:58:37.009Z,10.70
2023-04-18T23:01:05.211Z,10.87
2023-04-18T23:03:34.301Z,11.47
2023-04-18T23:06:02.456Z,12.10
2023-04-18T23:08:30.930Z,11.97
2023-04-18T23:10:59.027Z,11.07
2023-04-18T23:13:27.535Z,13.47
2023-04-18T23:15:56.900Z,11.97
2023-04-18T23:18:25.012Z,11.20
2023-04-18T23:20:52.962Z,11.50
2023-04-18T23:23:20.960Z,11.70
2023-04-18T23:25:49.711Z,10.70
2023-04-18T23:28:18.042Z,11.70
2023-04-18T23:30:47.197Z,13.03
2023-04-18T23:33:16.557Z,11.20
2023-04-18T23:35:44.587Z,11.83
2023-04-18T23:38:12.865Z,11.70
2023-04-18T23:40:40.838Z,12.40
2023-04-18T23:43:08.810Z,12.23
2023-04-18T23:45:37.214Z,11.60
2023-04-18T23:48:05.325Z,11.90
2023-04-18T23:50:35.545Z,11.03
2023-04-18T23:53:03.779Z,10.83
2023-04-18T23:55:31.706Z,11.20
2023-04-18T23:57:59.655Z,11.03
